Pemaquid, Maine
Current Conditions -  °F | °C
As of 1:53 AM on Saturday 25 Oct 2014 (Local Time) from KIWI Reporting Station
Overcast Overcast  
Wind Chill: 48°   Ceiling: 5000
Heat Index: 48°   Visibility: 10mi
Dew Point: 42°   Wind: 0mph
Humidity: 80%   Direction: NA
Pressure: 29.69"   Gusts: NA
Location:  43.91°N, 69.52°W
Report Text: KIWI 250553Z AUTO 00000KT 10SM FEW031 OVC050 09/06 A2969 RMK AO2 SLP053 60000 T00890056 10094 20078 58005
Loading
Personal Weather Stations






























Interactive Weather Map
Tropical Storm Tracking
New forecast layout! Learn more

10-Day Weather Forecast

Advertisements
Track Severe Weather on mobile